createdAt,value
2023-02-26T00:01:24.336Z,1.84
2023-02-26T00:06:28.483Z,1.71
2023-02-26T00:11:33.976Z,1.83
2023-02-26T00:16:37.992Z,1.79
2023-02-26T00:21:41.480Z,2.09
2023-02-26T00:26:45.717Z,2.20
2023-02-26T00:31:49.227Z,1.71
2023-02-26T00:37:12.848Z,1.64
2023-02-26T00:42:18.699Z,1.63
2023-02-26T00:47:30.904Z,1.71
2023-02-26T00:52:40.478Z,1.39
2023-02-26T00:57:44.630Z,1.01
2023-02-26T01:02:48.109Z,1.20
2023-02-26T01:08:00.557Z,1.86
2023-02-26T01:13:05.518Z,1.62
2023-02-26T01:18:15.309Z,2.56
2023-02-26T01:23:21.028Z,3.30
2023-02-26T01:28:26.165Z,2.97
2023-02-26T01:33:38.162Z,3.37
2023-02-26T01:38:45.892Z,3.50
2023-02-26T01:44:00.655Z,3.54
2023-02-26T01:49:05.980Z,3.38
2023-02-26T01:54:08.830Z,3.02
2023-02-26T01:59:17.131Z,3.05
2023-02-26T02:04:19.822Z,2.55
2023-02-26T02:09:22.604Z,2.45
2023-02-26T02:14:38.073Z,2.29
2023-02-26T02:20:11.552Z,2.16
2023-02-26T02:25:36.507Z,2.28
2023-02-26T02:31:02.774Z,2.29
2023-02-26T02:36:11.899Z,2.00
2023-02-26T02:41:20.320Z,1.86
2023-02-26T02:46:29.345Z,2.35
2023-02-26T02:51:35.414Z,2.20
2023-02-26T02:56:44.062Z,2.21
2023-02-26T03:01:51.712Z,2.38
2023-02-26T03:06:54.587Z,2.32
2023-02-26T03:11:57.363Z,2.16
2023-02-26T03:17:15.565Z,2.24
2023-02-26T03:22:29.158Z,2.35
2023-02-26T03:27:37.847Z,2.21
2023-02-26T03:32:51.314Z,1.81
2023-02-26T03:38:01.739Z,1.92
2023-02-26T03:43:09.667Z,2.14
2023-02-26T03:48:19.029Z,2.06
2023-02-26T03:53:31.961Z,1.78
2023-02-26T03:58:40.701Z,1.75
2023-02-26T04:04:20.333Z,2.20
2023-02-26T04:09:23.923Z,2.10
2023-02-26T04:14:26.898Z,2.08
2023-02-26T04:19:31.452Z,2.11
2023-02-26T04:24:35.041Z,1.82
2023-02-26T04:29:38.814Z,2.35
2023-02-26T04:34:43.852Z,2.13
2023-02-26T04:39:47.039Z,2.00
2023-02-26T04:44:50.177Z,1.44
2023-02-26T04:49:54.538Z,1.30
2023-02-26T04:54:57.352Z,1.14
2023-02-26T05:00:00.362Z,1.17
2023-02-26T05:05:10.588Z,1.38
2023-02-26T05:10:13.910Z,0.97
2023-02-26T05:15:16.705Z,1.07
2023-02-26T05:20:21.496Z,1.19
2023-02-26T05:25:25.316Z,0.94
2023-02-26T05:30:28.218Z,1.15
2023-02-26T05:35:32.409Z,1.22
2023-02-26T05:40:35.306Z,1.01
2023-02-26T05:45:38.260Z,1.39
2023-02-26T05:50:42.356Z,1.01
2023-02-26T05:55:45.120Z,0.98
2023-02-26T06:00:48.012Z,1.12
2023-02-26T06:05:52.168Z,0.99
2023-02-26T06:10:55.004Z,1.13
2023-02-26T06:15:57.914Z,1.11
2023-02-26T06:21:02.439Z,1.32
2023-02-26T06:26:05.825Z,0.94
2023-02-26T06:31:08.611Z,1.47
2023-02-26T06:36:13.226Z,1.69
2023-02-26T06:41:15.994Z,1.80
2023-02-26T06:46:19.813Z,1.60
2023-02-26T06:51:23.977Z,1.97
2023-02-26T06:56:27.325Z,2.21
2023-02-26T07:01:31.965Z,5.06
2023-02-26T07:06:36.211Z,6.54
2023-02-26T07:11:38.939Z,6.97
2023-02-26T07:16:41.789Z,5.87
2023-02-26T07:21:45.891Z,5.32
2023-02-26T07:26:49.174Z,4.63
2023-02-26T07:31:52.002Z,3.71
2023-02-26T07:36:56.129Z,3.32
2023-02-26T07:41:58.862Z,3.33
2023-02-26T07:47:05.004Z,3.27
2023-02-26T07:52:09.334Z,3.08
2023-02-26T07:57:12.110Z,3.49
2023-02-26T08:02:15.106Z,3.31
2023-02-26T08:07:19.433Z,4.02
2023-02-26T08:12:22.198Z,3.62
2023-02-26T08:17:24.997Z,4.05
2023-02-26T08:22:29.152Z,4.54
2023-02-26T08:27:31.891Z,4.41
2023-02-26T08:32:34.832Z,4.15
2023-02-26T08:37:39.363Z,4.00
2023-02-26T08:42:42.166Z,4.17
2023-02-26T08:47:56.380Z,4.27
2023-02-26T08:53:01.310Z,4.18
2023-02-26T08:58:04.459Z,3.72
2023-02-26T09:03:07.490Z,4.86
2023-02-26T09:08:15.255Z,4.98
2023-02-26T09:13:18.060Z,4.81
2023-02-26T09:18:20.781Z,4.72
2023-02-26T09:23:24.906Z,5.07
2023-02-26T09:28:27.747Z,5.28
2023-02-26T09:33:30.486Z,5.36
2023-02-26T09:38:35.835Z,5.55
2023-02-26T09:43:56.803Z,5.97
2023-02-26T09:49:08.219Z,5.75
2023-02-26T09:54:19.226Z,5.78
2023-02-26T09:59:22.210Z,6.06
2023-02-26T10:04:42.856Z,6.42
2023-02-26T10:10:02.273Z,6.30
2023-02-26T10:15:13.229Z,6.23
2023-02-26T10:20:21.564Z,6.05
2023-02-26T10:25:28.896Z,6.23
2023-02-26T10:30:37.680Z,6.72
2023-02-26T10:35:46.712Z,7.60
2023-02-26T10:40:52.339Z,8.05
2023-02-26T10:46:07.303Z,7.75
2023-02-26T10:51:14.529Z,6.96
2023-02-26T10:56:25.120Z,7.60
2023-02-26T11:01:30.850Z,7.97
2023-02-26T11:06:39.723Z,7.73
2023-02-26T11:11:48.666Z,7.44
2023-02-26T11:16:54.929Z,6.82
2023-02-26T11:22:00.873Z,7.14
2023-02-26T11:27:07.936Z,8.01
2023-02-26T11:32:19.437Z,8.37
2023-02-26T11:37:25.878Z,7.45
2023-02-26T11:42:30.196Z,8.33
2023-02-26T11:47:35.216Z,7.80
2023-02-26T11:52:43.116Z,8.07
2023-02-26T11:57:53.902Z,7.76
2023-02-26T12:03:01.265Z,7.01
2023-02-26T12:08:07.220Z,7.84
2023-02-26T12:13:20.776Z,8.24
2023-02-26T12:18:37.118Z,7.46
2023-02-26T12:24:04.707Z,7.47
2023-02-26T12:29:41.809Z,7.73
2023-02-26T12:35:12.359Z,8.10
2023-02-26T12:40:31.637Z,7.86
2023-02-26T12:45:47.220Z,8.16
2023-02-26T12:51:01.826Z,8.28
2023-02-26T12:56:22.079Z,7.82
2023-02-26T13:01:47.079Z,8.10
2023-02-26T13:07:49.598Z,8.23
2023-02-26T13:13:02.576Z,8.49
2023-02-26T13:18:17.120Z,8.38
2023-02-26T13:23:24.857Z,8.74
2023-02-26T13:28:39.496Z,8.37
2023-02-26T13:33:46.250Z,8.49
2023-02-26T13:39:04.662Z,8.36
2023-02-26T13:44:31.451Z,8.33
2023-02-26T13:49:49.056Z,8.84
2023-02-26T13:54:51.916Z,8.52
2023-02-26T14:00:02.062Z,8.56
2023-02-26T14:05:26.681Z,8.53
2023-02-26T14:10:37.563Z,9.32
2023-02-26T14:15:49.826Z,8.61
2023-02-26T14:20:54.074Z,8.37
2023-02-26T14:26:04.240Z,8.33
2023-02-26T14:31:17.533Z,7.38
2023-02-26T14:36:32.945Z,8.22
2023-02-26T14:41:40.504Z,6.97
2023-02-26T14:46:44.832Z,7.12
2023-02-26T14:52:04.257Z,7.47
2023-02-26T14:57:16.530Z,7.87
2023-02-26T15:02:29.647Z,7.99
2023-02-26T15:07:46.873Z,8.26
2023-02-26T15:13:06.497Z,8.11
2023-02-26T15:18:27.121Z,6.82
2023-02-26T15:23:39.890Z,7.06
2023-02-26T15:28:43.480Z,6.48
2023-02-26T15:33:49.669Z,6.78
2023-02-26T15:38:58.331Z,6.75
2023-02-26T15:44:06.002Z,6.83
2023-02-26T15:49:15.645Z,6.90
2023-02-26T15:54:23.269Z,6.84
2023-02-26T15:59:30.609Z,6.87
2023-02-26T16:04:36.619Z,6.68
2023-02-26T16:09:46.367Z,6.54
2023-02-26T16:14:54.043Z,6.58
2023-02-26T16:19:59.874Z,6.71
2023-02-26T16:25:09.184Z,6.77
2023-02-26T16:30:18.164Z,6.93
2023-02-26T16:35:24.351Z,7.23
2023-02-26T16:40:34.612Z,6.75
2023-02-26T16:45:51.008Z,6.46
2023-02-26T16:51:00.528Z,6.11
2023-02-26T16:56:06.254Z,6.22
2023-02-26T17:01:15.146Z,6.24
2023-02-26T17:06:20.312Z,6.30
2023-02-26T17:11:28.197Z,6.18
2023-02-26T17:16:31.149Z,5.97
2023-02-26T17:21:34.113Z,5.88
2023-02-26T17:26:38.232Z,5.95
2023-02-26T17:31:43.609Z,5.55
2023-02-26T17:36:46.431Z,5.29
2023-02-26T17:41:50.587Z,5.35
2023-02-26T17:46:53.570Z,5.54
2023-02-26T17:51:56.793Z,5.51
2023-02-26T17:57:01.345Z,5.46
2023-02-26T18:02:16.643Z,5.20
2023-02-26T18:07:20.253Z,5.23
2023-02-26T18:12:24.550Z,4.83
2023-02-26T18:17:31.011Z,5.14
2023-02-26T18:22:34.547Z,5.13
2023-02-26T18:27:38.852Z,5.30
2023-02-26T18:32:41.681Z,5.19
2023-02-26T18:37:44.620Z,4.93
2023-02-26T18:42:49.339Z,4.54
2023-02-26T18:47:52.188Z,4.33
2023-02-26T18:52:55.276Z,4.76
2023-02-26T18:58:07.720Z,4.69
2023-02-26T19:03:19.338Z,4.59
2023-02-26T19:08:22.159Z,4.68
2023-02-26T19:13:27.061Z,4.61
2023-02-26T19:18:30.191Z,4.16
2023-02-26T19:23:32.921Z,4.11
2023-02-26T19:28:37.386Z,4.24
2023-02-26T19:33:40.398Z,4.33
2023-02-26T19:38:47.374Z,4.28
2023-02-26T19:43:51.517Z,4.37
2023-02-26T19:48:54.284Z,4.09
2023-02-26T19:53:57.116Z,4.10
2023-02-26T19:59:01.470Z,4.13
2023-02-26T20:04:04.297Z,4.04
2023-02-26T20:09:07.283Z,4.07
2023-02-26T20:14:11.395Z,4.15
2023-02-26T20:19:14.211Z,4.02
2023-02-26T20:24:18.435Z,3.68
2023-02-26T20:36:16.360Z,3.43
2023-02-26T20:41:27.127Z,3.62
2023-02-26T20:46:32.917Z,3.53
2023-02-26T20:58:10.600Z,3.56
2023-02-26T21:03:14.715Z,3.36
2023-02-26T21:08:17.592Z,3.39
2023-02-26T21:13:20.834Z,3.56
2023-02-26T21:18:25.438Z,3.44
2023-02-26T21:23:28.316Z,3.33
2023-02-26T21:28:31.110Z,3.09
2023-02-26T21:33:35.224Z,2.96
2023-02-26T21:38:38.486Z,3.00
2023-02-26T21:43:41.232Z,2.90
2023-02-26T21:48:46.296Z,3.32
2023-02-26T21:53:49.622Z,3.11
2023-02-26T21:58:52.926Z,3.03
2023-02-26T22:03:57.034Z,2.73
2023-02-26T22:08:59.784Z,3.27
2023-02-26T22:14:02.529Z,2.89
2023-02-26T22:19:09.644Z,3.03
2023-02-26T22:24:12.373Z,3.11
2023-02-26T22:29:15.195Z,3.27
2023-02-26T22:34:19.281Z,3.47
2023-02-26T22:39:22.096Z,3.67
2023-02-26T22:44:24.999Z,3.62
2023-02-26T22:49:29.195Z,3.22
2023-02-26T22:54:31.911Z,3.01
2023-02-26T22:59:34.857Z,2.91
2023-02-26T23:04:39.548Z,3.09
2023-02-26T23:09:42.447Z,3.01
2023-02-26T23:14:45.296Z,3.00
2023-02-26T23:19:49.385Z,3.04
2023-02-26T23:24:52.239Z,3.11
2023-02-26T23:29:55.023Z,3.09
2023-02-26T23:34:59.223Z,3.20
2023-02-26T23:40:01.919Z,2.54
2023-02-26T23:45:05.125Z,2.68
2023-02-26T23:50:10.732Z,2.76
2023-02-26T23:55:13.596Z,2.67
